sensor_id;sensor_type;location;lat;lon;timestamp;P1;durP1;ratioP1;P2;durP2;ratioP2
59685;SDS011;45554;51.096;16.976;2022-07-29T00:04:14;7.60;;;1.90;;
59685;SDS011;45554;51.096;16.976;2022-07-29T00:06:49;6.40;;;1.80;;
59685;SDS011;45554;51.096;16.976;2022-07-29T00:09:26;4.60;;;1.80;;
59685;SDS011;45554;51.096;16.976;2022-07-29T00:12:19;5.10;;;1.80;;
59685;SDS011;45554;51.096;16.976;2022-07-29T00:14:55;7.30;;;1.90;;
59685;SDS011;45554;51.096;16.976;2022-07-29T00:17:28;7.20;;;2.00;;
59685;SDS011;45554;51.096;16.976;2022-07-29T00:19:58;5.90;;;2.00;;
59685;SDS011;45554;51.096;16.976;2022-07-29T00:22:29;6.80;;;1.70;;
59685;SDS011;45554;51.096;16.976;2022-07-29T00:24:58;4.00;;;1.90;;
59685;SDS011;45554;51.096;16.976;2022-07-29T00:27:27;5.10;;;2.10;;
59685;SDS011;45554;51.096;16.976;2022-07-29T00:29:56;6.00;;;1.90;;
59685;SDS011;45554;51.096;16.976;2022-07-29T00:32:24;5.10;;;1.90;;
59685;SDS011;45554;51.096;16.976;2022-07-29T00:34:52;4.90;;;2.00;;
59685;SDS011;45554;51.096;16.976;2022-07-29T00:37:39;5.60;;;2.20;;
59685;SDS011;45554;51.096;16.976;2022-07-29T00:40:07;6.00;;;2.30;;
59685;SDS011;45554;51.096;16.976;2022-07-29T00:42:49;4.50;;;2.10;;
59685;SDS011;45554;51.096;16.976;2022-07-29T00:45:18;6.50;;;2.00;;
59685;SDS011;45554;51.096;16.976;2022-07-29T00:47:49;5.80;;;2.30;;
59685;SDS011;45554;51.096;16.976;2022-07-29T00:50:18;8.10;;;2.10;;
59685;SDS011;45554;51.096;16.976;2022-07-29T00:52:46;6.30;;;1.90;;
59685;SDS011;45554;51.096;16.976;2022-07-29T00:55:15;4.60;;;2.00;;
59685;SDS011;45554;51.096;16.976;2022-07-29T00:57:44;6.90;;;2.30;;
59685;SDS011;45554;51.096;16.976;2022-07-29T01:00:15;6.30;;;2.30;;
59685;SDS011;45554;51.096;16.976;2022-07-29T01:02:46;4.90;;;2.00;;
59685;SDS011;45554;51.096;16.976;2022-07-29T01:05:20;2.90;;;1.70;;
59685;SDS011;45554;51.096;16.976;2022-07-29T01:07:51;6.40;;;2.20;;
59685;SDS011;45554;51.096;16.976;2022-07-29T01:10:22;5.30;;;2.10;;
59685;SDS011;45554;51.096;16.976;2022-07-29T01:12:51;5.70;;;2.30;;
59685;SDS011;45554;51.096;16.976;2022-07-29T01:15:22;6.00;;;2.30;;
59685;SDS011;45554;51.096;16.976;2022-07-29T01:20:42;5.00;;;2.10;;
59685;SDS011;45554;51.096;16.976;2022-07-29T01:29:05;5.30;;;2.20;;
59685;SDS011;45554;51.096;16.976;2022-07-29T01:31:42;6.70;;;2.40;;
59685;SDS011;45554;51.096;16.976;2022-07-29T01:34:35;7.00;;;2.60;;
59685;SDS011;45554;51.096;16.976;2022-07-29T01:37:24;5.80;;;2.10;;
59685;SDS011;45554;51.096;16.976;2022-07-29T01:39:54;7.30;;;2.10;;
59685;SDS011;45554;51.096;16.976;2022-07-29T01:47:40;4.60;;;2.20;;
59685;SDS011;45554;51.096;16.976;2022-07-29T01:50:14;6.50;;;2.30;;
59685;SDS011;45554;51.096;16.976;2022-07-29T01:55:25;4.60;;;2.20;;
59685;SDS011;45554;51.096;16.976;2022-07-29T01:57:57;4.60;;;2.20;;
59685;SDS011;45554;51.096;16.976;2022-07-29T02:00:27;6.20;;;2.30;;
59685;SDS011;45554;51.096;16.976;2022-07-29T02:02:58;5.90;;;2.40;;
59685;SDS011;45554;51.096;16.976;2022-07-29T02:05:33;5.20;;;2.50;;
59685;SDS011;45554;51.096;16.976;2022-07-29T02:08:04;6.40;;;2.50;;
59685;SDS011;45554;51.096;16.976;2022-07-29T02:10:33;5.20;;;2.20;;
59685;SDS011;45554;51.096;16.976;2022-07-29T02:13:03;5.70;;;2.30;;
59685;SDS011;45554;51.096;16.976;2022-07-29T02:15:33;5.70;;;2.10;;
59685;SDS011;45554;51.096;16.976;2022-07-29T02:18:09;7.20;;;2.90;;
59685;SDS011;45554;51.096;16.976;2022-07-29T02:20:50;6.30;;;2.60;;
59685;SDS011;45554;51.096;16.976;2022-07-29T02:23:22;7.00;;;2.50;;
59685;SDS011;45554;51.096;16.976;2022-07-29T02:25:53;6.40;;;2.60;;
59685;SDS011;45554;51.096;16.976;2022-07-29T02:28:24;11.10;;;2.10;;
59685;SDS011;45554;51.096;16.976;2022-07-29T02:30:55;5.10;;;2.10;;
59685;SDS011;45554;51.096;16.976;2022-07-29T02:33:27;5.00;;;2.20;;
59685;SDS011;45554;51.096;16.976;2022-07-29T02:35:58;8.30;;;2.30;;
59685;SDS011;45554;51.096;16.976;2022-07-29T02:38:29;5.80;;;2.70;;
59685;SDS011;45554;51.096;16.976;2022-07-29T02:41:20;6.00;;;2.30;;
59685;SDS011;45554;51.096;16.976;2022-07-29T02:43:53;5.50;;;2.30;;
59685;SDS011;45554;51.096;16.976;2022-07-29T02:46:29;11.00;;;2.90;;
59685;SDS011;45554;51.096;16.976;2022-07-29T02:49:07;5.60;;;2.30;;
59685;SDS011;45554;51.096;16.976;2022-07-29T02:51:42;5.60;;;2.40;;
59685;SDS011;45554;51.096;16.976;2022-07-29T02:54:17;5.20;;;2.20;;
59685;SDS011;45554;51.096;16.976;2022-07-29T02:56:57;9.40;;;2.80;;
59685;SDS011;45554;51.096;16.976;2022-07-29T02:59:29;4.80;;;2.00;;
59685;SDS011;45554;51.096;16.976;2022-07-29T03:02:01;6.30;;;2.40;;
59685;SDS011;45554;51.096;16.976;2022-07-29T03:04:32;4.70;;;2.20;;
59685;SDS011;45554;51.096;16.976;2022-07-29T03:07:02;6.50;;;2.50;;
59685;SDS011;45554;51.096;16.976;2022-07-29T03:09:31;6.70;;;3.00;;
59685;SDS011;45554;51.096;16.976;2022-07-29T03:11:59;4.40;;;2.40;;
59685;SDS011;45554;51.096;16.976;2022-07-29T03:19:26;4.90;;;2.20;;
59685;SDS011;45554;51.096;16.976;2022-07-29T03:21:56;5.70;;;2.40;;
59685;SDS011;45554;51.096;16.976;2022-07-29T03:24:25;9.40;;;3.00;;
59685;SDS011;45554;51.096;16.976;2022-07-29T03:26:55;7.30;;;2.40;;
59685;SDS011;45554;51.096;16.976;2022-07-29T03:32:02;8.10;;;2.50;;
59685;SDS011;45554;51.096;16.976;2022-07-29T03:34:35;5.30;;;2.60;;
59685;SDS011;45554;51.096;16.976;2022-07-29T03:37:06;8.20;;;3.00;;
59685;SDS011;45554;51.096;16.976;2022-07-29T03:39:38;7.70;;;2.80;;
59685;SDS011;45554;51.096;16.976;2022-07-29T03:42:10;7.10;;;2.50;;
59685;SDS011;45554;51.096;16.976;2022-07-29T03:44:43;7.20;;;2.70;;
59685;SDS011;45554;51.096;16.976;2022-07-29T03:47:13;7.20;;;2.80;;
59685;SDS011;45554;51.096;16.976;2022-07-29T03:49:42;6.50;;;2.30;;
59685;SDS011;45554;51.096;16.976;2022-07-29T03:52:14;7.60;;;2.30;;
59685;SDS011;45554;51.096;16.976;2022-07-29T03:54:42;5.10;;;2.60;;
59685;SDS011;45554;51.096;16.976;2022-07-29T03:57:11;10.20;;;2.50;;
59685;SDS011;45554;51.096;16.976;2022-07-29T03:59:40;6.00;;;2.40;;
59685;SDS011;45554;51.096;16.976;2022-07-29T04:02:11;7.00;;;2.50;;
59685;SDS011;45554;51.096;16.976;2022-07-29T04:04:42;5.10;;;2.70;;
59685;SDS011;45554;51.096;16.976;2022-07-29T04:07:13;4.70;;;2.20;;
59685;SDS011;45554;51.096;16.976;2022-07-29T04:09:42;6.40;;;2.40;;
59685;SDS011;45554;51.096;16.976;2022-07-29T04:12:10;5.90;;;2.80;;
59685;SDS011;45554;51.096;16.976;2022-07-29T04:14:39;8.00;;;2.80;;
59685;SDS011;45554;51.096;16.976;2022-07-29T04:17:07;10.00;;;2.80;;
59685;SDS011;45554;51.096;16.976;2022-07-29T04:19:35;7.30;;;2.60;;
59685;SDS011;45554;51.096;16.976;2022-07-29T04:22:03;9.20;;;2.80;;
59685;SDS011;45554;51.096;16.976;2022-07-29T04:24:33;5.90;;;3.00;;
59685;SDS011;45554;51.096;16.976;2022-07-29T04:27:04;5.50;;;2.40;;
59685;SDS011;45554;51.096;16.976;2022-07-29T04:29:33;7.20;;;2.40;;
59685;SDS011;45554;51.096;16.976;2022-07-29T04:32:00;8.20;;;2.70;;
59685;SDS011;45554;51.096;16.976;2022-07-29T04:34:29;5.80;;;2.20;;
59685;SDS011;45554;51.096;16.976;2022-07-29T04:36:56;7.90;;;2.60;;
59685;SDS011;45554;51.096;16.976;2022-07-29T04:39:24;7.20;;;2.20;;
59685;SDS011;45554;51.096;16.976;2022-07-29T04:41:57;7.30;;;2.90;;
59685;SDS011;45554;51.096;16.976;2022-07-29T04:44:25;6.40;;;2.70;;
59685;SDS011;45554;51.096;16.976;2022-07-29T04:46:55;7.30;;;2.60;;
59685;SDS011;45554;51.096;16.976;2022-07-29T04:49:24;6.60;;;2.70;;
59685;SDS011;45554;51.096;16.976;2022-07-29T04:51:53;4.80;;;2.40;;
59685;SDS011;45554;51.096;16.976;2022-07-29T04:54:22;8.50;;;3.20;;
59685;SDS011;45554;51.096;16.976;2022-07-29T04:56:52;7.00;;;2.80;;
59685;SDS011;45554;51.096;16.976;2022-07-29T04:59:20;7.70;;;2.40;;
59685;SDS011;45554;51.096;16.976;2022-07-29T05:01:49;6.40;;;2.30;;
59685;SDS011;45554;51.096;16.976;2022-07-29T05:04:17;6.20;;;2.40;;
59685;SDS011;45554;51.096;16.976;2022-07-29T05:06:47;5.90;;;2.50;;
59685;SDS011;45554;51.096;16.976;2022-07-29T05:09:15;6.90;;;2.30;;
59685;SDS011;45554;51.096;16.976;2022-07-29T05:11:43;7.50;;;2.50;;
59685;SDS011;45554;51.096;16.976;2022-07-29T05:14:11;7.80;;;2.50;;
59685;SDS011;45554;51.096;16.976;2022-07-29T05:16:41;7.40;;;2.60;;
59685;SDS011;45554;51.096;16.976;2022-07-29T05:19:10;8.80;;;2.20;;
59685;SDS011;45554;51.096;16.976;2022-07-29T05:21:41;5.30;;;2.10;;
59685;SDS011;45554;51.096;16.976;2022-07-29T05:24:09;5.00;;;2.30;;
59685;SDS011;45554;51.096;16.976;2022-07-29T05:26:37;5.60;;;2.20;;
59685;SDS011;45554;51.096;16.976;2022-07-29T05:29:05;6.70;;;2.30;;
59685;SDS011;45554;51.096;16.976;2022-07-29T05:31:54;6.00;;;2.10;;
59685;SDS011;45554;51.096;16.976;2022-07-29T05:34:22;8.00;;;2.40;;
59685;SDS011;45554;51.096;16.976;2022-07-29T05:36:50;5.90;;;2.30;;
59685;SDS011;45554;51.096;16.976;2022-07-29T05:39:18;4.70;;;2.10;;
59685;SDS011;45554;51.096;16.976;2022-07-29T05:41:48;5.90;;;2.20;;
59685;SDS011;45554;51.096;16.976;2022-07-29T05:44:18;6.90;;;2.30;;
59685;SDS011;45554;51.096;16.976;2022-07-29T05:46:51;7.40;;;2.70;;
59685;SDS011;45554;51.096;16.976;2022-07-29T05:49:23;7.60;;;2.90;;
59685;SDS011;45554;51.096;16.976;2022-07-29T05:51:54;7.30;;;2.60;;
59685;SDS011;45554;51.096;16.976;2022-07-29T05:54:22;5.90;;;2.20;;
59685;SDS011;45554;51.096;16.976;2022-07-29T05:56:50;8.10;;;2.40;;
59685;SDS011;45554;51.096;16.976;2022-07-29T05:59:18;8.30;;;2.50;;
59685;SDS011;45554;51.096;16.976;2022-07-29T06:01:46;7.10;;;2.40;;
59685;SDS011;45554;51.096;16.976;2022-07-29T06:04:14;5.80;;;2.10;;
59685;SDS011;45554;51.096;16.976;2022-07-29T06:06:44;7.00;;;2.30;;
59685;SDS011;45554;51.096;16.976;2022-07-29T06:09:12;6.30;;;2.30;;
59685;SDS011;45554;51.096;16.976;2022-07-29T06:11:41;6.50;;;2.30;;
59685;SDS011;45554;51.096;16.976;2022-07-29T06:14:09;6.20;;;2.20;;
59685;SDS011;45554;51.096;16.976;2022-07-29T06:16:37;7.00;;;2.10;;
59685;SDS011;45554;51.096;16.976;2022-07-29T06:19:05;6.60;;;2.00;;
59685;SDS011;45554;51.096;16.976;2022-07-29T06:21:36;5.30;;;2.10;;
59685;SDS011;45554;51.096;16.976;2022-07-29T06:24:08;8.30;;;2.90;;
59685;SDS011;45554;51.096;16.976;2022-07-29T06:26:41;7.70;;;2.40;;
59685;SDS011;45554;51.096;16.976;2022-07-29T06:29:10;6.70;;;2.30;;
59685;SDS011;45554;51.096;16.976;2022-07-29T06:31:39;7.90;;;2.60;;
59685;SDS011;45554;51.096;16.976;2022-07-29T06:34:07;7.20;;;2.90;;
59685;SDS011;45554;51.096;16.976;2022-07-29T06:36:35;8.60;;;3.00;;
59685;SDS011;45554;51.096;16.976;2022-07-29T06:39:05;6.70;;;2.60;;
59685;SDS011;45554;51.096;16.976;2022-07-29T06:41:34;6.70;;;2.60;;
59685;SDS011;45554;51.096;16.976;2022-07-29T06:44:09;7.50;;;2.40;;
59685;SDS011;45554;51.096;16.976;2022-07-29T06:46:38;5.80;;;2.40;;
59685;SDS011;45554;51.096;16.976;2022-07-29T06:49:06;7.50;;;2.60;;
59685;SDS011;45554;51.096;16.976;2022-07-29T06:51:35;6.60;;;2.80;;
59685;SDS011;45554;51.096;16.976;2022-07-29T06:54:03;9.30;;;2.60;;
59685;SDS011;45554;51.096;16.976;2022-07-29T06:56:33;5.70;;;2.20;;
59685;SDS011;45554;51.096;16.976;2022-07-29T06:59:08;5.50;;;2.20;;
59685;SDS011;45554;51.096;16.976;2022-07-29T07:01:38;8.90;;;2.50;;
59685;SDS011;45554;51.096;16.976;2022-07-29T07:04:09;5.80;;;2.30;;
59685;SDS011;45554;51.096;16.976;2022-07-29T07:06:38;6.10;;;2.30;;
59685;SDS011;45554;51.096;16.976;2022-07-29T07:09:06;6.20;;;2.30;;
59685;SDS011;45554;51.096;16.976;2022-07-29T07:14:02;5.90;;;2.60;;
59685;SDS011;45554;51.096;16.976;2022-07-29T07:16:31;7.40;;;2.40;;
59685;SDS011;45554;51.096;16.976;2022-07-29T07:19:00;7.10;;;2.40;;
59685;SDS011;45554;51.096;16.976;2022-07-29T07:23:58;6.20;;;2.10;;
59685;SDS011;45554;51.096;16.976;2022-07-29T07:26:27;4.70;;;2.00;;
59685;SDS011;45554;51.096;16.976;2022-07-29T07:28:56;6.40;;;2.00;;
59685;SDS011;45554;51.096;16.976;2022-07-29T07:31:24;6.00;;;2.10;;
59685;SDS011;45554;51.096;16.976;2022-07-29T07:36:21;5.70;;;2.00;;
59685;SDS011;45554;51.096;16.976;2022-07-29T07:38:49;5.20;;;1.80;;
59685;SDS011;45554;51.096;16.976;2022-07-29T07:41:17;6.20;;;2.20;;
59685;SDS011;45554;51.096;16.976;2022-07-29T07:43:46;6.80;;;2.10;;
59685;SDS011;45554;51.096;16.976;2022-07-29T07:46:14;6.40;;;2.50;;
59685;SDS011;45554;51.096;16.976;2022-07-29T07:48:42;8.20;;;2.40;;
59685;SDS011;45554;51.096;16.976;2022-07-29T07:51:11;6.00;;;2.20;;
59685;SDS011;45554;51.096;16.976;2022-07-29T07:53:39;7.80;;;2.60;;
59685;SDS011;45554;51.096;16.976;2022-07-29T07:56:07;6.10;;;2.10;;
59685;SDS011;45554;51.096;16.976;2022-07-29T07:58:38;5.40;;;2.10;;
59685;SDS011;45554;51.096;16.976;2022-07-29T08:01:07;8.80;;;2.10;;
59685;SDS011;45554;51.096;16.976;2022-07-29T08:03:36;3.90;;;1.70;;
59685;SDS011;45554;51.096;16.976;2022-07-29T08:08:33;5.70;;;2.00;;
59685;SDS011;45554;51.096;16.976;2022-07-29T08:11:01;6.90;;;2.00;;
59685;SDS011;45554;51.096;16.976;2022-07-29T08:13:36;7.90;;;2.10;;
59685;SDS011;45554;51.096;16.976;2022-07-29T08:16:06;6.20;;;2.40;;
59685;SDS011;45554;51.096;16.976;2022-07-29T08:18:43;7.60;;;2.30;;
59685;SDS011;45554;51.096;16.976;2022-07-29T08:21:13;6.00;;;2.10;;
59685;SDS011;45554;51.096;16.976;2022-07-29T08:23:45;4.40;;;1.70;;
59685;SDS011;45554;51.096;16.976;2022-07-29T08:26:27;7.60;;;2.00;;
59685;SDS011;45554;51.096;16.976;2022-07-29T08:28:55;3.50;;;1.60;;
59685;SDS011;45554;51.096;16.976;2022-07-29T08:31:23;4.40;;;1.90;;
59685;SDS011;45554;51.096;16.976;2022-07-29T08:33:51;5.70;;;1.70;;
59685;SDS011;45554;51.096;16.976;2022-07-29T08:36:19;5.50;;;1.80;;
59685;SDS011;45554;51.096;16.976;2022-07-29T08:38:48;7.40;;;2.30;;
59685;SDS011;45554;51.096;16.976;2022-07-29T08:41:20;5.30;;;1.80;;
59685;SDS011;45554;51.096;16.976;2022-07-29T08:43:48;11.70;;;1.90;;
59685;SDS011;45554;51.096;16.976;2022-07-29T08:46:18;4.80;;;1.50;;
59685;SDS011;45554;51.096;16.976;2022-07-29T08:48:47;5.80;;;1.90;;
59685;SDS011;45554;51.096;16.976;2022-07-29T08:51:22;6.30;;;1.80;;
59685;SDS011;45554;51.096;16.976;2022-07-29T08:53:55;5.70;;;1.80;;
59685;SDS011;45554;51.096;16.976;2022-07-29T08:58:53;5.40;;;1.70;;
59685;SDS011;45554;51.096;16.976;2022-07-29T09:01:25;4.30;;;2.00;;
59685;SDS011;45554;51.096;16.976;2022-07-29T09:04:03;6.30;;;1.70;;
59685;SDS011;45554;51.096;16.976;2022-07-29T09:06:39;4.80;;;1.70;;
59685;SDS011;45554;51.096;16.976;2022-07-29T09:09:11;4.50;;;1.80;;
59685;SDS011;45554;51.096;16.976;2022-07-29T09:11:41;5.00;;;1.70;;
59685;SDS011;45554;51.096;16.976;2022-07-29T09:14:11;5.20;;;2.10;;
59685;SDS011;45554;51.096;16.976;2022-07-29T09:16:47;4.00;;;2.00;;
59685;SDS011;45554;51.096;16.976;2022-07-29T09:19:24;7.20;;;1.90;;
59685;SDS011;45554;51.096;16.976;2022-07-29T09:21:57;3.70;;;1.80;;
59685;SDS011;45554;51.096;16.976;2022-07-29T09:24:37;6.00;;;1.90;;
59685;SDS011;45554;51.096;16.976;2022-07-29T09:27:23;5.70;;;1.80;;
59685;SDS011;45554;51.096;16.976;2022-07-29T09:29:59;9.40;;;2.00;;
59685;SDS011;45554;51.096;16.976;2022-07-29T09:32:32;7.30;;;2.00;;
59685;SDS011;45554;51.096;16.976;2022-07-29T09:35:13;6.00;;;2.20;;
59685;SDS011;45554;51.096;16.976;2022-07-29T09:37:49;4.40;;;1.80;;
59685;SDS011;45554;51.096;16.976;2022-07-29T09:40:20;6.10;;;2.00;;
59685;SDS011;45554;51.096;16.976;2022-07-29T09:42:50;4.40;;;1.70;;
59685;SDS011;45554;51.096;16.976;2022-07-29T09:45:30;4.20;;;1.80;;
59685;SDS011;45554;51.096;16.976;2022-07-29T09:48:13;4.50;;;1.90;;
59685;SDS011;45554;51.096;16.976;2022-07-29T09:50:46;5.10;;;1.80;;
59685;SDS011;45554;51.096;16.976;2022-07-29T09:53:50;8.80;;;2.30;;
59685;SDS011;45554;51.096;16.976;2022-07-29T09:56:15;6.90;;;2.50;;
59685;SDS011;45554;51.096;16.976;2022-07-29T09:58:43;6.60;;;2.40;;
59685;SDS011;45554;51.096;16.976;2022-07-29T10:01:12;4.70;;;2.10;;
59685;SDS011;45554;51.096;16.976;2022-07-29T10:03:51;8.60;;;1.90;;
59685;SDS011;45554;51.096;16.976;2022-07-29T10:06:19;5.20;;;1.90;;
59685;SDS011;45554;51.096;16.976;2022-07-29T10:08:48;5.60;;;2.30;;
59685;SDS011;45554;51.096;16.976;2022-07-29T10:11:17;4.30;;;1.80;;
59685;SDS011;45554;51.096;16.976;2022-07-29T10:13:47;6.70;;;1.90;;
59685;SDS011;45554;51.096;16.976;2022-07-29T10:16:16;3.50;;;1.80;;
59685;SDS011;45554;51.096;16.976;2022-07-29T10:18:44;5.60;;;1.80;;
59685;SDS011;45554;51.096;16.976;2022-07-29T10:21:14;6.40;;;1.80;;
59685;SDS011;45554;51.096;16.976;2022-07-29T10:24:03;4.90;;;2.10;;
59685;SDS011;45554;51.096;16.976;2022-07-29T10:26:32;4.60;;;2.00;;
59685;SDS011;45554;51.096;16.976;2022-07-29T10:29:01;3.60;;;1.80;;
59685;SDS011;45554;51.096;16.976;2022-07-29T10:31:35;7.20;;;2.30;;
59685;SDS011;45554;51.096;16.976;2022-07-29T10:34:21;5.00;;;2.30;;
59685;SDS011;45554;51.096;16.976;2022-07-29T10:43:06;3.70;;;2.00;;
59685;SDS011;45554;51.096;16.976;2022-07-29T10:46:06;6.10;;;2.20;;
59685;SDS011;45554;51.096;16.976;2022-07-29T10:48:35;4.20;;;2.20;;
59685;SDS011;45554;51.096;16.976;2022-07-29T10:51:05;5.00;;;1.90;;
59685;SDS011;45554;51.096;16.976;2022-07-29T10:53:51;5.80;;;2.00;;
59685;SDS011;45554;51.096;16.976;2022-07-29T10:56:24;5.10;;;1.90;;
59685;SDS011;45554;51.096;16.976;2022-07-29T11:01:52;5.00;;;1.80;;
59685;SDS011;45554;51.096;16.976;2022-07-29T11:07:13;3.00;;;1.70;;
59685;SDS011;45554;51.096;16.976;2022-07-29T11:09:44;4.80;;;1.90;;
59685;SDS011;45554;51.096;16.976;2022-07-29T11:12:46;7.10;;;1.90;;
59685;SDS011;45554;51.096;16.976;2022-07-29T11:15:16;6.20;;;2.40;;
59685;SDS011;45554;51.096;16.976;2022-07-29T11:20:46;4.30;;;1.90;;
59685;SDS011;45554;51.096;16.976;2022-07-29T11:23:28;5.80;;;2.10;;
59685;SDS011;45554;51.096;16.976;2022-07-29T11:31:16;5.90;;;2.30;;
59685;SDS011;45554;51.096;16.976;2022-07-29T11:39:40;7.00;;;2.10;;
59685;SDS011;45554;51.096;16.976;2022-07-29T11:45:03;5.50;;;1.90;;
59685;SDS011;45554;51.096;16.976;2022-07-29T11:47:55;4.50;;;1.80;;
59685;SDS011;45554;51.096;16.976;2022-07-29T11:50:48;7.80;;;2.20;;
59685;SDS011;45554;51.096;16.976;2022-07-29T11:53:16;4.80;;;2.40;;
59685;SDS011;45554;51.096;16.976;2022-07-29T11:55:45;5.00;;;2.00;;
59685;SDS011;45554;51.096;16.976;2022-07-29T11:58:21;5.50;;;2.10;;
59685;SDS011;45554;51.096;16.976;2022-07-29T12:00:52;6.10;;;1.90;;
59685;SDS011;45554;51.096;16.976;2022-07-29T12:03:23;9.30;;;2.10;;
59685;SDS011;45554;51.096;16.976;2022-07-29T12:06:03;6.40;;;2.20;;
59685;SDS011;45554;51.096;16.976;2022-07-29T12:08:40;5.30;;;2.20;;
59685;SDS011;45554;51.096;16.976;2022-07-29T12:11:17;5.70;;;1.80;;
59685;SDS011;45554;51.096;16.976;2022-07-29T12:13:47;5.80;;;1.90;;
59685;SDS011;45554;51.096;16.976;2022-07-29T12:16:16;4.90;;;1.90;;
59685;SDS011;45554;51.096;16.976;2022-07-29T12:18:59;5.50;;;1.80;;
59685;SDS011;45554;51.096;16.976;2022-07-29T12:21:42;6.90;;;2.00;;
59685;SDS011;45554;51.096;16.976;2022-07-29T12:24:22;3.90;;;2.10;;
59685;SDS011;45554;51.096;16.976;2022-07-29T12:26:58;7.40;;;2.50;;
59685;SDS011;45554;51.096;16.976;2022-07-29T12:29:28;9.10;;;2.20;;
59685;SDS011;45554;51.096;16.976;2022-07-29T12:32:01;7.80;;;2.00;;
59685;SDS011;45554;51.096;16.976;2022-07-29T12:34:32;5.90;;;1.90;;
59685;SDS011;45554;51.096;16.976;2022-07-29T12:37:01;7.50;;;2.10;;
59685;SDS011;45554;51.096;16.976;2022-07-29T12:39:29;5.30;;;2.10;;
59685;SDS011;45554;51.096;16.976;2022-07-29T12:41:58;5.60;;;2.20;;
59685;SDS011;45554;51.096;16.976;2022-07-29T12:44:44;5.20;;;2.00;;
59685;SDS011;45554;51.096;16.976;2022-07-29T12:47:15;5.70;;;1.90;;
59685;SDS011;45554;51.096;16.976;2022-07-29T12:49:45;5.00;;;2.10;;
59685;SDS011;45554;51.096;16.976;2022-07-29T12:52:28;7.30;;;2.30;;
59685;SDS011;45554;51.096;16.976;2022-07-29T12:54:59;4.20;;;2.10;;
59685;SDS011;45554;51.096;16.976;2022-07-29T12:57:27;3.70;;;1.90;;
59685;SDS011;45554;51.096;16.976;2022-07-29T13:00:03;5.90;;;2.20;;
59685;SDS011;45554;51.096;16.976;2022-07-29T13:02:36;4.60;;;2.00;;
59685;SDS011;45554;51.096;16.976;2022-07-29T13:05:06;5.40;;;2.00;;
59685;SDS011;45554;51.096;16.976;2022-07-29T13:07:38;7.60;;;2.10;;
59685;SDS011;45554;51.096;16.976;2022-07-29T13:10:22;6.80;;;2.30;;
59685;SDS011;45554;51.096;16.976;2022-07-29T13:13:13;4.90;;;2.20;;
59685;SDS011;45554;51.096;16.976;2022-07-29T13:15:44;4.30;;;2.20;;
59685;SDS011;45554;51.096;16.976;2022-07-29T13:18:33;5.40;;;2.40;;
59685;SDS011;45554;51.096;16.976;2022-07-29T13:21:14;6.10;;;2.30;;
59685;SDS011;45554;51.096;16.976;2022-07-29T13:23:45;7.70;;;2.50;;
59685;SDS011;45554;51.096;16.976;2022-07-29T13:26:13;6.00;;;2.10;;
59685;SDS011;45554;51.096;16.976;2022-07-29T13:28:43;5.40;;;2.00;;
59685;SDS011;45554;51.096;16.976;2022-07-29T13:31:12;3.90;;;2.00;;
59685;SDS011;45554;51.096;16.976;2022-07-29T13:33:39;4.70;;;1.90;;
59685;SDS011;45554;51.096;16.976;2022-07-29T13:41:03;4.70;;;2.00;;
59685;SDS011;45554;51.096;16.976;2022-07-29T13:43:32;4.70;;;2.10;;
59685;SDS011;45554;51.096;16.976;2022-07-29T13:46:00;5.00;;;2.30;;
59685;SDS011;45554;51.096;16.976;2022-07-29T13:48:28;6.10;;;1.90;;
59685;SDS011;45554;51.096;16.976;2022-07-29T13:50:56;6.20;;;2.20;;
59685;SDS011;45554;51.096;16.976;2022-07-29T13:55:53;4.90;;;2.20;;
59685;SDS011;45554;51.096;16.976;2022-07-29T13:58:22;5.30;;;2.10;;
59685;SDS011;45554;51.096;16.976;2022-07-29T14:03:18;6.10;;;2.10;;
59685;SDS011;45554;51.096;16.976;2022-07-29T14:05:46;6.50;;;2.30;;
59685;SDS011;45554;51.096;16.976;2022-07-29T14:08:14;5.70;;;2.10;;
59685;SDS011;45554;51.096;16.976;2022-07-29T14:10:42;4.50;;;2.10;;
59685;SDS011;45554;51.096;16.976;2022-07-29T14:13:10;7.80;;;2.30;;
59685;SDS011;45554;51.096;16.976;2022-07-29T14:15:52;5.50;;;2.20;;
59685;SDS011;45554;51.096;16.976;2022-07-29T14:18:20;6.20;;;2.60;;
59685;SDS011;45554;51.096;16.976;2022-07-29T14:20:48;4.70;;;2.20;;
59685;SDS011;45554;51.096;16.976;2022-07-29T14:23:17;4.90;;;2.20;;
59685;SDS011;45554;51.096;16.976;2022-07-29T14:25:46;7.10;;;2.20;;
59685;SDS011;45554;51.096;16.976;2022-07-29T14:28:15;4.60;;;2.20;;
59685;SDS011;45554;51.096;16.976;2022-07-29T14:30:44;6.80;;;2.00;;
59685;SDS011;45554;51.096;16.976;2022-07-29T14:33:12;6.30;;;2.00;;
59685;SDS011;45554;51.096;16.976;2022-07-29T14:35:40;5.90;;;2.50;;
59685;SDS011;45554;51.096;16.976;2022-07-29T14:38:08;3.00;;;1.70;;
59685;SDS011;45554;51.096;16.976;2022-07-29T14:40:36;8.30;;;2.30;;
59685;SDS011;45554;51.096;16.976;2022-07-29T14:43:05;5.60;;;2.20;;
59685;SDS011;45554;51.096;16.976;2022-07-29T14:45:33;4.70;;;2.00;;
59685;SDS011;45554;51.096;16.976;2022-07-29T14:50:29;6.50;;;2.20;;
59685;SDS011;45554;51.096;16.976;2022-07-29T14:52:59;5.40;;;2.50;;
59685;SDS011;45554;51.096;16.976;2022-07-29T14:55:28;3.80;;;2.10;;
59685;SDS011;45554;51.096;16.976;2022-07-29T14:57:56;8.10;;;2.10;;
59685;SDS011;45554;51.096;16.976;2022-07-29T15:00:35;6.60;;;2.40;;
59685;SDS011;45554;51.096;16.976;2022-07-29T15:03:04;6.30;;;2.40;;
59685;SDS011;45554;51.096;16.976;2022-07-29T15:05:37;8.10;;;2.10;;
59685;SDS011;45554;51.096;16.976;2022-07-29T15:08:06;7.70;;;2.20;;
59685;SDS011;45554;51.096;16.976;2022-07-29T15:10:35;5.40;;;2.20;;
59685;SDS011;45554;51.096;16.976;2022-07-29T15:13:03;8.60;;;2.40;;
59685;SDS011;45554;51.096;16.976;2022-07-29T15:15:32;5.60;;;2.30;;
59685;SDS011;45554;51.096;16.976;2022-07-29T15:18:00;7.40;;;2.10;;
59685;SDS011;45554;51.096;16.976;2022-07-29T15:20:29;6.10;;;2.30;;
59685;SDS011;45554;51.096;16.976;2022-07-29T15:22:58;6.20;;;2.30;;
59685;SDS011;45554;51.096;16.976;2022-07-29T15:25:26;4.70;;;2.20;;
59685;SDS011;45554;51.096;16.976;2022-07-29T15:27:55;6.10;;;2.50;;
59685;SDS011;45554;51.096;16.976;2022-07-29T15:30:30;4.60;;;2.30;;
59685;SDS011;45554;51.096;16.976;2022-07-29T15:33:01;5.70;;;2.30;;
59685;SDS011;45554;51.096;16.976;2022-07-29T15:35:31;6.40;;;2.40;;
59685;SDS011;45554;51.096;16.976;2022-07-29T15:38:07;4.50;;;2.40;;
59685;SDS011;45554;51.096;16.976;2022-07-29T15:43:04;5.20;;;2.50;;
59685;SDS011;45554;51.096;16.976;2022-07-29T15:45:37;5.30;;;2.30;;
59685;SDS011;45554;51.096;16.976;2022-07-29T15:48:07;7.90;;;2.40;;
59685;SDS011;45554;51.096;16.976;2022-07-29T15:50:41;5.00;;;2.30;;
59685;SDS011;45554;51.096;16.976;2022-07-29T15:53:13;5.70;;;2.30;;
59685;SDS011;45554;51.096;16.976;2022-07-29T15:55:41;7.20;;;2.60;;
59685;SDS011;45554;51.096;16.976;2022-07-29T15:58:11;5.20;;;2.30;;
59685;SDS011;45554;51.096;16.976;2022-07-29T16:00:40;7.80;;;2.50;;
59685;SDS011;45554;51.096;16.976;2022-07-29T16:03:07;4.80;;;2.40;;
59685;SDS011;45554;51.096;16.976;2022-07-29T16:05:35;6.90;;;2.50;;
59685;SDS011;45554;51.096;16.976;2022-07-29T16:08:04;6.80;;;2.40;;
59685;SDS011;45554;51.096;16.976;2022-07-29T16:10:31;5.20;;;2.30;;
59685;SDS011;45554;51.096;16.976;2022-07-29T16:12:59;5.70;;;2.40;;
59685;SDS011;45554;51.096;16.976;2022-07-29T16:15:28;8.00;;;2.50;;
59685;SDS011;45554;51.096;16.976;2022-07-29T16:20:24;3.90;;;2.10;;
59685;SDS011;45554;51.096;16.976;2022-07-29T16:22:52;6.30;;;2.50;;
59685;SDS011;45554;51.096;16.976;2022-07-29T16:25:20;7.50;;;2.70;;